KVNY/VNY METAR and TAF weather

Enter ICAO airport designator
Station Type Date Time Source
KVNY METAR 2021/02/27 09:51 UTC NOAA

KVNY 270951Z 01011G22KT 10SM CLR 16/M08 A2991 RMK AO2 SLP121 T01611078


Station Type Date Time Source
KVNY Decoded METAR 2021/02/27 09:51 UTC NOAA

VAN NUYS AIRPORT, CA, United States (KVNY) 34-13N 118-29W 245M
Feb 27, 2021 - 04:51 AM EST / 2021.02.27 0951 UTC
Wind: from the N (010 degrees) at 13 MPH (11 KT) gusting to 25 MPH (22 KT):0
Visibility: 10 mile(s):0
Sky conditions: clear
Temperature: 61.0 F (16.1 C)
Dew Point: 18.0 F (-7.8 C)
Relative Humidity: 18%
Pressure (altimeter): 29.91 in. Hg (1012 hPa)
ob: KVNY 270951Z 01011G22KT 10SM CLR 16/M08 A2991 RMK AO2 SLP121 T01611078
cycle: 10

Station Type Date Time Source
KVNY TAF 2021/02/27 06:42 UTC NOAA

TAF KVNY 270540Z 2706/2806 36011KT P6SM SKC
FM272000 01015G20KT P6SM SKC
FM280300 01010KT P6SM SKC

Example: see airport list